CSAPA EDLW-EDDG
Flight info
| Callsign | CSAPA |
|---|---|
| Flight time | 0h 25m |
| Altitude | 2400 |
| Route | EDLW NROUTE NOVEMBER A1 WHISKEY WROUTE EDDG |
| Aircraft | C152/L-V/N |
Departure
| Time | 2026-04-27 13:37 |
|---|---|
| Airport | Dortmund Airport (EDLW) |
Arrival
| Time | 2026-04-27 14:03 |
|---|---|
| Airport | Münster Osnabrück Airport (EDDG) |
| Time | Latitude | Longitude | Altitude | Speed | Heading |
|---|---|---|---|---|---|
| 2026-04-27 13:18 | 51.51296 | 7.60635 | 427 ft | 0 kts | 331° |
| 2026-04-27 13:25 | 51.51297 | 7.60635 | 427 ft | 0 kts | 332° |
| 2026-04-27 13:29 | 51.51297 | 7.60634 | 427 ft | 0 kts | 330° |
| 2026-04-27 13:30 | 51.51301 | 7.60602 | 427 ft | 4 kts | 241° |
| 2026-04-27 13:30 | 51.51289 | 7.60565 | 427 ft | 3 kts | 240° |
| 2026-04-27 13:30 | 51.51274 | 7.60523 | 427 ft | 6 kts | 240° |
| 2026-04-27 13:30 | 51.51251 | 7.60456 | 427 ft | 8 kts | 241° |
| 2026-04-27 13:31 | 51.51219 | 7.60365 | 427 ft | 10 kts | 242° |
| 2026-04-27 13:31 | 51.51188 | 7.60270 | 427 ft | 8 kts | 243° |
| 2026-04-27 13:31 | 51.51175 | 7.60207 | 427 ft | 3 kts | 311° |
| 2026-04-27 13:31 | 51.51192 | 7.60193 | 427 ft | 5 kts | 334° |
| 2026-04-27 13:32 | 51.51224 | 7.60173 | 427 ft | 2 kts | 27° |
| 2026-04-27 13:32 | 51.51236 | 7.60205 | 427 ft | 7 kts | 62° |
| 2026-04-27 13:32 | 51.51269 | 7.60299 | 427 ft | 11 kts | 61° |
| 2026-04-27 13:32 | 51.51305 | 7.60408 | 427 ft | 12 kts | 62° |
| 2026-04-27 13:33 | 51.51348 | 7.60534 | 427 ft | 13 kts | 61° |
| 2026-04-27 13:33 | 51.51391 | 7.60657 | 427 ft | 13 kts | 61° |
| 2026-04-27 13:33 | 51.51418 | 7.60735 | 427 ft | 11 kts | 61° |
| 2026-04-27 13:33 | 51.51460 | 7.60860 | 427 ft | 10 kts | 61° |
| 2026-04-27 13:34 | 51.51482 | 7.60924 | 427 ft | 10 kts | 62° |
| 2026-04-27 13:34 | 51.51515 | 7.61021 | 427 ft | 10 kts | 62° |
| 2026-04-27 13:34 | 51.51562 | 7.61061 | 427 ft | 8 kts | 356° |
| 2026-04-27 13:34 | 51.51614 | 7.61022 | 427 ft | 7 kts | 299° |
| 2026-04-27 13:35 | 51.51599 | 7.60957 | 427 ft | 8 kts | 240° |
| 2026-04-27 13:35 | 51.51577 | 7.60893 | 427 ft | 6 kts | 240° |
| 2026-04-27 13:35 | 51.51552 | 7.60816 | 427 ft | 8 kts | 245° |
| 2026-04-27 13:35 | 51.51539 | 7.60729 | 427 ft | 9 kts | 260° |
| 2026-04-27 13:36 | 51.51550 | 7.60640 | 427 ft | 9 kts | 308° |
| 2026-04-27 13:36 | 51.51606 | 7.60601 | 427 ft | 7 kts | 26° |
| 2026-04-27 13:36 | 51.51641 | 7.60671 | 427 ft | 15 kts | 58° |
| 2026-04-27 13:36 | 51.51789 | 7.61086 | 428 ft | 68 kts | 61° |
| 2026-04-27 13:37 | 51.52019 | 7.61804 | 613 ft | 73 kts | 64° |
| 2026-04-27 13:37 | 51.52266 | 7.62532 | 812 ft | 74 kts | 60° |
| 2026-04-27 13:37 | 51.52530 | 7.63240 | 1017 ft | 75 kts | 59° |
| 2026-04-27 13:37 | 51.52903 | 7.63929 | 1108 ft | 92 kts | 33° |
| 2026-04-27 13:38 | 51.53490 | 7.64193 | 1346 ft | 85 kts | 358° |
| 2026-04-27 13:38 | 51.54072 | 7.64019 | 1500 ft | 89 kts | 349° |
| 2026-04-27 13:38 | 51.54683 | 7.63844 | 1683 ft | 87 kts | 350° |
| 2026-04-27 13:38 | 51.55276 | 7.63670 | 1854 ft | 88 kts | 349° |
| 2026-04-27 13:39 | 51.55878 | 7.63469 | 2032 ft | 87 kts | 348° |
| 2026-04-27 13:39 | 51.56483 | 7.63317 | 2190 ft | 89 kts | 353° |
| 2026-04-27 13:39 | 51.57096 | 7.63213 | 2354 ft | 88 kts | 355° |
| 2026-04-27 13:39 | 51.57734 | 7.63122 | 2348 ft | 93 kts | 353° |
| 2026-04-27 13:40 | 51.58373 | 7.62965 | 2354 ft | 92 kts | 351° |
| 2026-04-27 13:40 | 51.59007 | 7.62810 | 2349 ft | 92 kts | 352° |
| 2026-04-27 13:40 | 51.59645 | 7.62662 | 2341 ft | 93 kts | 352° |
| 2026-04-27 13:40 | 51.60284 | 7.62516 | 2341 ft | 93 kts | 352° |
| 2026-04-27 13:41 | 51.60931 | 7.62459 | 2324 ft | 94 kts | 2° |
| 2026-04-27 13:41 | 51.61576 | 7.62576 | 2335 ft | 92 kts | 10° |
| 2026-04-27 13:41 | 51.62196 | 7.62817 | 2337 ft | 92 kts | 16° |
| 2026-04-27 13:41 | 51.62808 | 7.63137 | 2344 ft | 92 kts | 19° |
| 2026-04-27 13:42 | 51.63409 | 7.63493 | 2355 ft | 92 kts | 21° |
| 2026-04-27 13:42 | 51.64004 | 7.63869 | 2395 ft | 93 kts | 21° |
| 2026-04-27 13:42 | 51.64627 | 7.64271 | 2398 ft | 98 kts | 22° |
| 2026-04-27 13:42 | 51.65265 | 7.64679 | 2390 ft | 100 kts | 21° |
| 2026-04-27 13:43 | 51.65917 | 7.65085 | 2412 ft | 101 kts | 21° |
| 2026-04-27 13:43 | 51.66577 | 7.65480 | 2413 ft | 102 kts | 20° |
| 2026-04-27 13:43 | 51.67247 | 7.65867 | 2406 ft | 103 kts | 19° |
| 2026-04-27 13:43 | 51.67932 | 7.66206 | 2407 ft | 103 kts | 13° |
| 2026-04-27 13:44 | 51.68637 | 7.66393 | 2409 ft | 103 kts | 6° |
| 2026-04-27 13:44 | 51.69352 | 7.66437 | 2406 ft | 103 kts | 359° |
| 2026-04-27 13:44 | 51.70064 | 7.66338 | 2408 ft | 103 kts | 352° |
| 2026-04-27 13:44 | 51.70768 | 7.66139 | 2405 ft | 103 kts | 348° |
| 2026-04-27 13:45 | 51.71465 | 7.65880 | 2403 ft | 103 kts | 347° |
| 2026-04-27 13:45 | 51.72166 | 7.65635 | 2400 ft | 103 kts | 348° |
| 2026-04-27 13:45 | 51.72868 | 7.65401 | 2400 ft | 103 kts | 348° |
| 2026-04-27 13:45 | 51.73569 | 7.65170 | 2396 ft | 103 kts | 348° |
| 2026-04-27 13:46 | 51.74272 | 7.64935 | 2395 ft | 103 kts | 348° |
| 2026-04-27 13:46 | 51.74973 | 7.64691 | 2393 ft | 103 kts | 347° |
| 2026-04-27 13:46 | 51.75673 | 7.64434 | 2391 ft | 103 kts | 347° |
| 2026-04-27 13:46 | 51.76369 | 7.64161 | 2390 ft | 103 kts | 346° |
| 2026-04-27 13:47 | 51.77061 | 7.63870 | 2388 ft | 103 kts | 345° |
| 2026-04-27 13:47 | 51.77752 | 7.63557 | 2386 ft | 103 kts | 343° |
| 2026-04-27 13:47 | 51.78438 | 7.63221 | 2384 ft | 103 kts | 342° |
| 2026-04-27 13:47 | 51.79121 | 7.62859 | 2382 ft | 103 kts | 341° |
| 2026-04-27 13:48 | 51.79788 | 7.62442 | 2382 ft | 103 kts | 337° |
| 2026-04-27 13:48 | 51.80449 | 7.61989 | 2377 ft | 103 kts | 336° |
| 2026-04-27 13:48 | 51.81100 | 7.61532 | 2376 ft | 103 kts | 336° |
| 2026-04-27 13:48 | 51.81763 | 7.61052 | 2373 ft | 103 kts | 335° |
| 2026-04-27 13:49 | 51.82399 | 7.60581 | 2342 ft | 101 kts | 335° |
| 2026-04-27 13:49 | 51.83051 | 7.60109 | 2212 ft | 104 kts | 336° |
| 2026-04-27 13:49 | 51.83705 | 7.59641 | 2133 ft | 101 kts | 336° |
| 2026-04-27 13:49 | 51.84355 | 7.59176 | 2049 ft | 102 kts | 336° |
| 2026-04-27 13:50 | 51.85008 | 7.58704 | 2016 ft | 103 kts | 335° |
| 2026-04-27 13:50 | 51.85657 | 7.58225 | 1997 ft | 102 kts | 335° |
| 2026-04-27 13:50 | 51.86305 | 7.57733 | 1968 ft | 103 kts | 334° |
| 2026-04-27 13:50 | 51.86940 | 7.57235 | 1980 ft | 99 kts | 334° |
| 2026-04-27 13:51 | 51.87561 | 7.56730 | 1953 ft | 101 kts | 333° |
| 2026-04-27 13:51 | 51.88196 | 7.56263 | 1942 ft | 100 kts | 338° |
| 2026-04-27 13:51 | 51.88837 | 7.55881 | 1949 ft | 98 kts | 341° |
| 2026-04-27 13:51 | 51.89494 | 7.55541 | 1952 ft | 98 kts | 343° |
| 2026-04-27 13:52 | 51.90150 | 7.55232 | 1954 ft | 99 kts | 344° |
| 2026-04-27 13:52 | 51.90815 | 7.54937 | 1969 ft | 99 kts | 345° |
| 2026-04-27 13:52 | 51.91479 | 7.54653 | 1979 ft | 99 kts | 346° |
| 2026-04-27 13:52 | 51.92148 | 7.54393 | 1986 ft | 99 kts | 348° |
| 2026-04-27 13:53 | 51.93503 | 7.54017 | 2000 ft | 99 kts | 352° |
| 2026-04-27 13:53 | 51.94186 | 7.53881 | 2007 ft | 99 kts | 354° |
| 2026-04-27 13:53 | 51.94874 | 7.53816 | 2010 ft | 99 kts | 358° |
| 2026-04-27 13:54 | 51.95563 | 7.53814 | 2018 ft | 99 kts | 1° |
| 2026-04-27 13:54 | 51.96251 | 7.53850 | 2022 ft | 99 kts | 2° |
| 2026-04-27 13:54 | 51.96936 | 7.53997 | 2011 ft | 100 kts | 14° |
| 2026-04-27 13:54 | 51.97593 | 7.54373 | 2018 ft | 99 kts | 24° |
| 2026-04-27 13:55 | 51.98190 | 7.54904 | 2017 ft | 100 kts | 33° |
| 2026-04-27 13:55 | 51.98756 | 7.55544 | 2025 ft | 99 kts | 38° |
| 2026-04-27 13:55 | 51.99287 | 7.56259 | 2028 ft | 99 kts | 40° |
| 2026-04-27 13:55 | 51.99806 | 7.56996 | 2035 ft | 99 kts | 41° |
| 2026-04-27 13:56 | 52.00341 | 7.57698 | 2041 ft | 99 kts | 37° |
| 2026-04-27 13:56 | 52.00908 | 7.58329 | 2045 ft | 99 kts | 32° |
| 2026-04-27 13:56 | 52.01502 | 7.58895 | 2049 ft | 99 kts | 30° |
| 2026-04-27 13:56 | 52.02098 | 7.59453 | 2053 ft | 99 kts | 30° |
| 2026-04-27 13:57 | 52.02701 | 7.60002 | 2057 ft | 99 kts | 29° |
| 2026-04-27 13:57 | 52.03307 | 7.60535 | 2061 ft | 99 kts | 28° |
| 2026-04-27 13:57 | 52.03917 | 7.61060 | 2059 ft | 99 kts | 28° |
| 2026-04-27 13:57 | 52.04522 | 7.61603 | 2065 ft | 99 kts | 30° |
| 2026-04-27 13:58 | 52.05113 | 7.62187 | 2065 ft | 99 kts | 32° |
| 2026-04-27 13:58 | 52.05697 | 7.62784 | 2070 ft | 99 kts | 33° |
| 2026-04-27 13:58 | 52.06308 | 7.63272 | 2018 ft | 99 kts | 14° |
| 2026-04-27 13:58 | 52.07001 | 7.63307 | 1952 ft | 99 kts | 352° |
| 2026-04-27 13:59 | 52.07662 | 7.63039 | 1918 ft | 97 kts | 343° |
| 2026-04-27 13:59 | 52.08290 | 7.62720 | 1856 ft | 94 kts | 341° |
| 2026-04-27 13:59 | 52.08891 | 7.62380 | 1765 ft | 89 kts | 341° |
| 2026-04-27 13:59 | 52.09474 | 7.62081 | 1633 ft | 88 kts | 342° |
| 2026-04-27 14:00 | 52.10059 | 7.61778 | 1497 ft | 87 kts | 342° |
| 2026-04-27 14:00 | 52.10634 | 7.61507 | 1337 ft | 86 kts | 343° |
| 2026-04-27 14:00 | 52.11192 | 7.61299 | 1188 ft | 76 kts | 360° |
| 2026-04-27 14:00 | 52.11646 | 7.61686 | 994 ft | 77 kts | 45° |
| 2026-04-27 14:01 | 52.11971 | 7.62306 | 879 ft | 73 kts | 51° |
| 2026-04-27 14:01 | 52.12273 | 7.62984 | 768 ft | 72 kts | 59° |
| 2026-04-27 14:01 | 52.12482 | 7.63713 | 676 ft | 70 kts | 69° |
| 2026-04-27 14:01 | 52.12639 | 7.64469 | 596 ft | 71 kts | 72° |
| 2026-04-27 14:02 | 52.12785 | 7.65230 | 476 ft | 72 kts | 72° |
| 2026-04-27 14:02 | 52.12937 | 7.65977 | 368 ft | 67 kts | 69° |
| 2026-04-27 14:02 | 52.13096 | 7.66698 | 247 ft | 67 kts | 72° |
| 2026-04-27 14:02 | 52.13229 | 7.67359 | 162 ft | 52 kts | 71° |
| 2026-04-27 14:03 | 52.13324 | 7.67810 | 162 ft | 31 kts | 71° |
| 2026-04-27 14:03 | 52.13379 | 7.68063 | 162 ft | 17 kts | 71° |
| 2026-04-27 14:03 | 52.13402 | 7.68194 | 162 ft | 8 kts | 95° |
| 2026-04-27 14:03 | 52.13379 | 7.68243 | 162 ft | 3 kts | 161° |
| 2026-04-27 14:04 | 52.13353 | 7.68257 | 162 ft | 7 kts | 161° |
| 2026-04-27 14:04 | 52.13309 | 7.68280 | 162 ft | 4 kts | 161° |
| 2026-04-27 14:04 | 52.13303 | 7.68284 | 162 ft | 0 kts | 161° |
| 2026-04-27 14:04 | 52.13295 | 7.68288 | 162 ft | 5 kts | 161° |
| 2026-04-27 14:05 | 52.13273 | 7.68300 | 162 ft | 2 kts | 161° |
| 2026-04-27 14:05 | 52.13258 | 7.68307 | 162 ft | 5 kts | 173° |
| 2026-04-27 14:05 | 52.13232 | 7.68314 | 162 ft | 7 kts | 130° |
| 2026-04-27 14:05 | 52.13213 | 7.68349 | 162 ft | 0 kts | 161° |
| 2026-04-27 14:06 | 52.13202 | 7.68351 | 162 ft | 4 kts | 191° |
| 2026-04-27 14:06 | 52.13193 | 7.68339 | 162 ft | 3 kts | 249° |
| 2026-04-27 14:06 | 52.13172 | 7.68251 | 162 ft | 11 kts | 246° |
| 2026-04-27 14:06 | 52.13125 | 7.68244 | 162 ft | 11 kts | 163° |
| 2026-04-27 14:07 | 52.13091 | 7.68253 | 162 ft | 2 kts | 244° |
| 2026-04-27 14:07 | 52.13085 | 7.68224 | 162 ft | 0 kts | 253° |